createdAt,value
2018-02-16T00:04:29.734Z,73.60
2018-02-16T00:09:24.799Z,69.40
2018-02-16T00:14:19.361Z,63.50
2018-02-16T00:19:14.592Z,76.40
2018-02-16T00:24:09.634Z,65.30
2018-02-16T00:29:04.567Z,55.40
2018-02-16T00:33:59.213Z,65.63
2018-02-16T00:38:54.401Z,77.27
2018-02-16T00:43:48.693Z,68.27
2018-02-16T00:48:43.052Z,78.77
2018-02-16T00:53:38.961Z,75.30
2018-02-16T00:58:34.104Z,66.60
2018-02-16T01:03:28.413Z,81.77
2018-02-16T01:08:23.938Z,77.53
2018-02-16T01:13:18.406Z,77.93
2018-02-16T01:18:12.875Z,63.27
2018-02-16T01:23:08.212Z,57.63
2018-02-16T01:28:03.086Z,75.87
2018-02-16T01:32:58.574Z,57.20
2018-02-16T01:37:53.473Z,64.33
2018-02-16T01:42:48.000Z,64.97
2018-02-16T01:47:42.514Z,59.93
2018-02-16T01:52:37.055Z,73.27
2018-02-16T01:57:32.425Z,67.93
2018-02-16T02:02:26.707Z,95.27
2018-02-16T02:07:21.064Z,109.80
2018-02-16T02:12:15.544Z,103.77
2018-02-16T02:17:09.852Z,125.47
2018-02-16T02:22:04.324Z,84.90
2018-02-16T02:26:58.615Z,65.03
2018-02-16T02:31:52.892Z,58.60
2018-02-16T02:36:47.988Z,90.87
2018-02-16T02:41:43.108Z,109.33
2018-02-16T02:46:37.406Z,74.20
2018-02-16T02:51:31.691Z,87.87
2018-02-16T02:56:25.984Z,77.47
2018-02-16T03:01:20.280Z,89.03
2018-02-16T03:06:14.568Z,62.03
2018-02-16T03:11:08.850Z,40.63
2018-02-16T03:16:03.258Z,45.23
2018-02-16T03:20:57.532Z,39.67
2018-02-16T03:25:52.576Z,47.83
2018-02-16T03:30:46.879Z,48.87
2018-02-16T03:35:41.261Z,51.90
2018-02-16T03:40:36.352Z,49.67
2018-02-16T03:45:30.793Z,43.07
2018-02-16T03:50:25.864Z,49.47
2018-02-16T03:55:20.232Z,65.40
2018-02-16T04:00:14.505Z,72.33
2018-02-16T04:05:09.554Z,72.47
2018-02-16T04:10:03.820Z,74.37
2018-02-16T04:14:58.866Z,92.33
2018-02-16T04:19:53.237Z,96.40
2018-02-16T04:24:48.276Z,104.13
2018-02-16T04:29:42.714Z,92.83
2018-02-16T04:34:37.098Z,90.53
2018-02-16T04:39:31.399Z,102.07
2018-02-16T04:44:25.709Z,95.90
2018-02-16T04:49:20.104Z,80.20
2018-02-16T04:54:14.400Z,84.27
2018-02-16T04:59:08.678Z,84.03
2018-02-16T05:04:04.038Z,81.63
2018-02-16T05:08:58.339Z,76.43
2018-02-16T05:13:52.625Z,87.93
2018-02-16T05:18:47.242Z,80.27
2018-02-16T05:23:41.521Z,72.07
2018-02-16T05:28:35.809Z,73.90
2018-02-16T05:33:30.869Z,86.73
2018-02-16T05:38:25.158Z,69.13
2018-02-16T05:43:19.462Z,93.30
2018-02-16T05:48:13.759Z,85.43
2018-02-16T05:53:08.174Z,88.57
2018-02-16T05:58:02.489Z,74.20
2018-02-16T06:02:56.931Z,78.17
2018-02-16T06:07:52.020Z,72.53
2018-02-16T06:12:46.305Z,90.70
2018-02-16T06:17:40.578Z,75.40
2018-02-16T06:22:34.867Z,67.87
2018-02-16T06:27:29.400Z,81.57
2018-02-16T06:32:23.963Z,86.07
2018-02-16T06:37:18.274Z,91.10
2018-02-16T06:42:13.326Z,82.90
2018-02-16T06:47:07.844Z,79.40
2018-02-16T06:52:02.949Z,79.17
2018-02-16T06:56:57.392Z,71.50
2018-02-16T07:01:51.680Z,60.60
2018-02-16T07:06:46.062Z,68.87
2018-02-16T07:11:40.665Z,61.83
2018-02-16T07:16:34.967Z,56.40
2018-02-16T07:21:29.650Z,45.60
2018-02-16T07:26:23.938Z,52.33
2018-02-16T07:31:19.007Z,53.47
2018-02-16T07:36:13.276Z,47.67
2018-02-16T07:41:07.931Z,42.87
2018-02-16T07:46:02.439Z,39.90
2018-02-16T07:50:56.812Z,43.53
2018-02-16T07:55:51.122Z,30.60
2018-02-16T08:00:45.400Z,22.70
2018-02-16T08:05:39.684Z,23.80
2018-02-16T08:10:35.661Z,19.83
2018-02-16T08:15:30.101Z,19.90
2018-02-16T08:20:24.556Z,18.87
2018-02-16T08:25:18.970Z,25.87
2018-02-16T08:30:13.092Z,21.20
2018-02-16T08:35:08.860Z,22.27
2018-02-16T08:40:03.508Z,21.80
2018-02-16T08:44:57.814Z,20.13
2018-02-16T08:49:52.127Z,17.47
2018-02-16T08:54:46.639Z,17.80
2018-02-16T08:59:41.040Z,19.33
2018-02-16T09:04:35.480Z,16.37
2018-02-16T09:09:30.530Z,16.43
2018-02-16T09:14:25.420Z,14.70
2018-02-16T09:19:20.220Z,16.30
2018-02-16T09:24:15.688Z,13.33
2018-02-16T09:29:10.312Z,13.90
2018-02-16T09:34:04.722Z,13.23
2018-02-16T09:39:00.162Z,13.40
2018-02-16T09:43:54.631Z,12.40
2018-02-16T09:48:48.958Z,12.80
2018-02-16T09:53:43.250Z,16.37
2018-02-16T09:58:37.520Z,15.63
2018-02-16T10:03:32.058Z,12.93
2018-02-16T10:08:26.422Z,16.33
2018-02-16T10:13:21.495Z,18.33
2018-02-16T10:18:15.899Z,16.77
2018-02-16T10:23:10.445Z,18.40
2018-02-16T10:28:04.851Z,18.23
2018-02-16T10:32:59.412Z,14.07
2018-02-16T10:37:54.169Z,17.97
2018-02-16T10:42:48.707Z,21.07
2018-02-16T10:47:43.136Z,17.83
2018-02-16T10:52:38.224Z,17.27
2018-02-16T10:57:32.679Z,18.97
2018-02-16T11:02:32.636Z,16.57
2018-02-16T11:07:32.590Z,18.90
2018-02-16T11:12:26.919Z,19.47
2018-02-16T11:17:21.238Z,17.87
2018-02-16T11:22:15.925Z,14.37
2018-02-16T11:27:10.409Z,15.87
2018-02-16T11:32:05.013Z,18.37
2018-02-16T11:36:59.303Z,13.60
2018-02-16T11:41:53.846Z,15.47
2018-02-16T11:46:48.141Z,14.00
2018-02-16T11:51:42.264Z,14.93
2018-02-16T11:56:36.784Z,13.33
2018-02-16T12:01:31.867Z,12.50
2018-02-16T12:06:26.159Z,11.90
2018-02-16T12:11:20.442Z,12.60
2018-02-16T12:16:14.993Z,18.93
2018-02-16T12:21:09.272Z,12.77
2018-02-16T12:26:03.580Z,10.43
2018-02-16T12:30:57.954Z,14.67
2018-02-16T12:35:53.490Z,10.27
2018-02-16T12:40:48.404Z,12.63
2018-02-16T12:45:43.071Z,11.43
2018-02-16T12:50:37.788Z,9.87
2018-02-16T12:55:33.366Z,11.23
2018-02-16T13:00:27.757Z,11.80
2018-02-16T13:05:22.152Z,13.83
2018-02-16T13:10:16.671Z,10.23
2018-02-16T13:15:11.277Z,14.23
2018-02-16T13:20:05.594Z,14.83
2018-02-16T13:24:59.937Z,6.90
2018-02-16T13:29:54.830Z,10.70
2018-02-16T13:34:49.580Z,8.83
2018-02-16T13:39:44.038Z,11.07
2018-02-16T13:44:38.631Z,11.77
2018-02-16T13:49:33.270Z,12.83
2018-02-16T13:54:28.646Z,8.63
2018-02-16T13:59:23.100Z,7.13
2018-02-16T14:04:18.369Z,12.00
2018-02-16T14:09:12.825Z,8.23
2018-02-16T14:14:07.398Z,12.17
2018-02-16T14:19:01.685Z,10.87
2018-02-16T14:23:56.131Z,8.03
2018-02-16T14:28:50.561Z,12.83
2018-02-16T14:33:45.938Z,8.43
2018-02-16T14:38:40.294Z,11.17
2018-02-16T14:43:34.598Z,8.83
2018-02-16T14:48:29.750Z,7.30
2018-02-16T14:53:24.318Z,7.37
2018-02-16T14:58:18.723Z,6.67
2018-02-16T15:03:14.219Z,12.03
2018-02-16T15:08:08.618Z,13.43
2018-02-16T15:13:03.395Z,13.43
2018-02-16T15:17:57.762Z,8.53
2018-02-16T15:22:52.856Z,8.80
2018-02-16T15:27:47.250Z,10.03
2018-02-16T15:32:42.634Z,8.70
2018-02-16T15:37:37.283Z,9.30
2018-02-16T15:42:31.682Z,9.70
2018-02-16T15:47:26.184Z,15.70
2018-02-16T15:52:20.538Z,13.23
2018-02-16T15:57:15.881Z,10.23
2018-02-16T16:02:10.298Z,10.57
2018-02-16T16:07:04.707Z,10.03
2018-02-16T16:11:58.979Z,8.97
2018-02-16T16:16:53.431Z,12.83
2018-02-16T16:21:47.958Z,12.93
2018-02-16T16:26:42.789Z,12.33
2018-02-16T16:31:37.881Z,8.40
2018-02-16T16:36:32.165Z,8.57
2018-02-16T16:41:26.745Z,14.47
2018-02-16T16:46:21.024Z,14.60
2018-02-16T16:51:16.086Z,10.03
2018-02-16T16:56:10.353Z,12.63
2018-02-16T17:01:04.666Z,13.20
2018-02-16T17:05:58.958Z,10.63
2018-02-16T17:10:53.378Z,11.73
2018-02-16T17:15:47.787Z,12.70
2018-02-16T17:20:42.147Z,10.30
2018-02-16T17:25:36.892Z,11.60
2018-02-16T17:30:31.393Z,11.40
2018-02-16T17:35:26.049Z,10.03
2018-02-16T17:40:21.627Z,9.23
2018-02-16T17:45:16.010Z,14.00
2018-02-16T17:50:11.091Z,12.97
2018-02-16T17:55:06.188Z,33.57
2018-02-16T18:00:00.496Z,37.07
2018-02-16T18:04:54.768Z,12.57
2018-02-16T18:09:49.042Z,20.20
2018-02-16T18:14:44.655Z,13.80
2018-02-16T18:19:39.734Z,15.17
2018-02-16T18:24:34.000Z,18.10
2018-02-16T18:29:29.345Z,12.07
2018-02-16T18:34:23.959Z,16.47
2018-02-16T18:39:18.328Z,23.83
2018-02-16T18:44:13.380Z,21.30
2018-02-16T18:49:07.925Z,19.77
2018-02-16T18:54:03.705Z,23.03
2018-02-16T18:58:59.202Z,21.20
2018-02-16T19:03:54.821Z,18.47
2018-02-16T19:08:50.745Z,17.90
2018-02-16T19:13:45.136Z,18.17
2018-02-16T19:18:39.733Z,19.33
2018-02-16T19:23:34.316Z,17.47
2018-02-16T19:28:30.199Z,15.13
2018-02-16T19:33:25.259Z,16.00
2018-02-16T19:38:20.388Z,17.70
2018-02-16T19:43:15.572Z,29.40
2018-02-16T19:48:10.249Z,15.93
2018-02-16T19:53:04.937Z,25.07
2018-02-16T19:57:59.238Z,21.97
2018-02-16T20:02:53.586Z,27.40
2018-02-16T20:07:49.504Z,22.33
2018-02-16T20:12:43.882Z,24.73
2018-02-16T20:17:38.475Z,25.80
2018-02-16T20:22:33.531Z,21.87
2018-02-16T20:27:28.686Z,18.73
2018-02-16T20:32:23.241Z,27.27
2018-02-16T20:37:17.670Z,24.30
2018-02-16T20:42:11.952Z,19.27
2018-02-16T20:47:06.992Z,30.57
2018-02-16T20:52:01.459Z,18.27
2018-02-16T20:56:57.578Z,20.07
2018-02-16T21:01:52.768Z,21.73
2018-02-16T21:06:47.626Z,18.97
2018-02-16T21:11:44.947Z,21.33
2018-02-16T21:16:39.517Z,17.73
2018-02-16T21:21:34.970Z,21.07
2018-02-16T21:26:29.855Z,17.97
2018-02-16T21:31:25.416Z,14.83
2018-02-16T21:36:20.840Z,21.03
2018-02-16T21:41:16.243Z,18.97
2018-02-16T21:46:11.546Z,19.97
2018-02-16T21:51:07.042Z,21.83
2018-02-16T21:56:01.441Z,21.40
2018-02-16T22:00:56.177Z,23.77
2018-02-16T22:05:50.581Z,17.47
2018-02-16T22:10:47.352Z,20.20
2018-02-16T22:15:42.518Z,14.77
2018-02-16T22:20:37.077Z,18.30
2018-02-16T22:25:31.386Z,23.80
2018-02-16T22:30:26.506Z,17.87
2018-02-16T22:35:21.747Z,19.80
2018-02-16T22:40:16.142Z,20.93
2018-02-16T22:45:10.634Z,18.80
2018-02-16T22:50:06.011Z,19.90
2018-02-16T22:55:00.512Z,18.37
2018-02-16T22:59:55.018Z,17.07
2018-02-16T23:04:49.720Z,19.00
2018-02-16T23:09:44.230Z,19.80
2018-02-16T23:14:38.617Z,20.37
2018-02-16T23:19:32.873Z,15.57
2018-02-16T23:24:27.848Z,18.50
2018-02-16T23:29:22.137Z,18.53
2018-02-16T23:34:16.420Z,19.77
2018-02-16T23:39:11.652Z,19.87
2018-02-16T23:44:06.684Z,23.67
2018-02-16T23:49:01.823Z,15.87
2018-02-16T23:53:57.710Z,16.83
2018-02-16T23:58:52.069Z,18.87
